This is the latest recevied weather packets stored in our database for station/object DB7GV-8. If no packets are shown the sender has not sent any weather packets the latest 10 day(s).
| Time | Temp. | Humidity | Pressure | Rain* | Wind** | Luminosity | Snow |
|---|---|---|---|---|---|---|---|
| 1777826294 | 18.89° C | 46% | 1015.5 hPa | - | - | - | - |
| 1777824484 | 21.67° C | 34% | 1014.8 hPa | - | - | - | - |
| 1777823578 | 22.78° C | 33% | 1014.3 hPa | - | - | - | - |
| 1777822673 | 23.33° C | 32% | 1014 hPa | - | - | - | - |
| 1777821768 | 23.33° C | 32% | 1013.8 hPa | - | - | - | - |
| 1777820861 | 24.44° C | 33% | 1013.7 hPa | - | - | - | - |
| 1777819956 | 25° C | 33% | 1013.5 hPa | - | - | - | - |
| 1777819051 | 26.67° C | 30% | 1013.6 hPa | - | - | - | - |
| 1777818146 | 26.11° C | 31% | 1013.7 hPa | - | - | - | - |
| 1777817241 | 26.11° C | 30% | 1013.9 hPa | - | - | - | - |
| 1777816335 | 25.56° C | 32% | 1014 hPa | - | - | - | - |
| 1777815429 | 25.56° C | 33% | 1014.2 hPa | - | - | - | - |
| 1777814524 | 25.56° C | 33% | 1014.2 hPa | - | - | - | - |
| 1777813618 | 26.11° C | 33% | 1014.3 hPa | - | - | - | - |
| 1777812713 | 27.22° C | 31% | 1014.3 hPa | - | - | - | - |
| 1777811808 | 27.78° C | 30% | 1014.4 hPa | - | - | - | - |
| 1777809997 | 27.22° C | 32% | 1014.7 hPa | - | - | - | - |
| 1777809092 | 27.22° C | 32% | 1014.8 hPa | - | - | - | - |
| 1777808186 | 26.67° C | 31% | 1015 hPa | - | - | - | - |
| 1777807280 | 27.22° C | 31% | 1015.2 hPa | - | - | - | - |
| 1777806375 | 27.78° C | 30% | 1015.3 hPa | - | - | - | - |
| 1777805470 | 27.22° C | 31% | 1015.4 hPa | - | - | - | - |
| 1777804564 | 27.78° C | 31% | 1015.6 hPa | - | - | - | - |
| 1777803659 | 27.78° C | 31% | 1015.7 hPa | - | - | - | - |
| 1777802753 | 26.67° C | 33% | 1015.8 hPa | - | - | - | - |
* Rain since midnight (hover to see other rain measurements)
** Current wind speed in m/s (hover to see current wind gust speed)